Time;durP1;ratioP1;P1;durP2;ratioP2;P2;SDS_P1;SDS_P2;PMS_P1;PMS_P2;Temp;Humidity;BMP_temperature;BMP_pressure;BME280_temperature;BME280_humidity;BME280_pressure;Samples;Min_cycle;Max_cycle;Signal;HPM_P1;HPM_P2
2023/11/13 00:00:58;;;;;;;9.47;6.93;;;6.90;99.90;;;8.80;65.79;97037.88;5011465;28;20064;-56
2023/11/13 00:03:26;;;;;;;11.37;8.20;;;6.90;99.90;;;8.81;66.09;97044.88;5011062;28;20423;-55
2023/11/13 00:05:55;;;;;;;9.80;7.30;;;6.90;99.90;;;8.82;66.13;97033.25;5011347;28;20046;-55
2023/11/13 00:08:23;;;;;;;9.07;7.40;;;6.90;99.90;;;8.80;66.24;97033.44;5003187;28;20050;-55
2023/11/13 00:10:50;;;;;;;9.30;7.40;;;6.90;99.90;;;8.82;66.09;97034.09;5011483;28;20052;-56
2023/11/13 00:13:18;;;;;;;15.60;11.03;;;7.00;99.90;;;8.85;66.23;97033.75;5010771;28;20057;-54
2023/11/13 00:15:46;;;;;;;11.50;7.97;;;7.00;99.90;;;8.87;66.13;97026.44;5011172;28;20423;-56
2023/11/13 00:18:14;;;;;;;10.37;6.87;;;7.00;99.90;;;8.90;66.35;97022.66;5011116;28;20503;-54
2023/11/13 00:20:45;;;;;;;17.80;11.67;;;7.10;99.90;;;8.94;66.42;97013.34;5010879;28;20064;-56
2023/11/13 00:23:12;;;;;;;13.53;8.67;;;7.20;99.90;;;8.97;66.39;97013.00;5010751;28;20068;-55
2023/11/13 00:25:40;;;;;;;9.57;7.03;;;7.20;99.90;;;9.01;66.38;97008.19;5011523;28;20052;-56
2023/11/13 00:28:08;;;;;;;9.77;6.67;;;7.30;99.90;;;9.02;66.61;97012.53;5011013;28;20057;-56
2023/11/13 00:30:38;;;;;;;9.87;7.97;;;7.30;99.90;;;9.05;66.48;97010.38;5010474;28;20041;-56
2023/11/13 00:33:06;;;;;;;9.20;6.67;;;7.20;99.90;;;9.05;66.30;97007.72;4993323;28;20050;-56
2023/11/13 00:35:34;;;;;;;10.13;6.10;;;7.20;99.90;;;9.06;66.33;97006.69;5010592;28;20065;-56
2023/11/13 00:38:01;;;;;;;8.97;6.73;;;7.30;99.90;;;9.07;66.36;97019.00;5010732;28;20388;-55
2023/11/13 00:40:31;;;;;;;8.90;6.80;;;7.30;99.90;;;9.09;66.48;97023.28;5009936;28;20046;-55
2023/11/13 00:42:58;;;;;;;8.57;6.07;;;7.30;99.90;;;9.12;66.31;97018.47;5009435;28;20049;-55
2023/11/13 00:45:27;;;;;;;8.63;6.00;;;7.30;99.90;;;9.14;66.49;97011.19;5008642;28;20049;-56
2023/11/13 00:47:55;;;;;;;10.13;6.47;;;7.40;99.90;;;9.17;66.30;97002.88;5009676;28;20057;-55
2023/11/13 00:50:23;;;;;;;8.27;6.17;;;7.40;99.90;;;9.20;66.23;96996.41;5009573;28;20050;-56
2023/11/13 00:52:50;;;;;;;8.37;6.90;;;7.40;99.90;;;9.19;66.46;97003.53;5009338;28;20050;-56
2023/11/13 00:55:18;;;;;;;8.43;6.27;;;7.40;99.90;;;9.19;66.35;97000.88;5009654;28;20058;-55
2023/11/13 00:57:46;;;;;;;10.47;6.77;;;7.40;99.90;;;9.20;66.32;97002.53;5009482;28;20049;-56
2023/11/13 01:00:14;;;;;;;9.67;6.60;;;7.30;99.90;;;9.21;66.39;96988.28;5010502;28;20057;-54
2023/11/13 01:02:42;;;;;;;8.10;5.90;;;7.40;99.90;;;9.24;66.40;96995.06;5010440;28;20499;-55
2023/11/13 01:05:11;;;;;;;9.80;6.67;;;7.30;99.90;;;9.21;66.32;96988.28;5008974;28;20054;-55
2023/11/13 01:07:39;;;;;;;7.60;5.97;;;7.40;99.90;;;9.23;66.55;96988.94;5010399;28;20400;-56
2023/11/13 01:10:07;;;;;;;10.40;6.50;;;7.50;99.90;;;9.25;66.69;96992.25;5009564;28;20061;-55
2023/11/13 01:12:36;;;;;;;8.27;5.87;;;7.50;99.90;;;9.27;66.50;96992.09;5009070;28;20042;-55
2023/11/13 01:15:06;;;;;;;8.70;7.00;;;7.50;99.90;;;9.25;66.51;96986.13;5009402;28;20046;-55
2023/11/13 01:17:35;;;;;;;8.73;5.60;;;7.50;99.90;;;9.26;66.92;97001.84;5009332;28;20045;-56
2023/11/13 01:20:05;;;;;;;8.63;5.73;;;7.60;99.90;;;9.26;66.77;96995.72;5009411;28;20042;-56
2023/11/13 01:22:33;;;;;;;6.93;5.93;;;7.60;99.90;;;9.29;66.49;97007.84;5008939;28;20046;-56
2023/11/13 01:25:01;;;;;;;9.03;6.00;;;7.60;99.90;;;9.29;66.80;97003.38;5009396;28;20053;-55
2023/11/13 01:27:28;;;;;;;9.40;6.20;;;7.60;99.90;;;9.32;66.44;96991.56;4993254;28;20053;-56
2023/11/13 01:29:56;;;;;;;8.97;6.70;;;7.60;99.90;;;9.29;66.79;96984.78;5010133;28;20065;-56
2023/11/13 01:32:24;;;;;;;9.83;6.67;;;7.60;99.90;;;9.27;66.60;96973.50;5008794;28;20557;-55
2023/11/13 01:34:51;;;;;;;9.93;6.87;;;7.60;99.90;;;9.26;66.76;96963.84;5009223;28;20046;-55
2023/11/13 01:37:19;;;;;;;9.50;6.03;;;7.70;99.90;;;9.23;66.83;96956.25;5010078;28;20302;-56
2023/11/13 01:39:47;;;;;;;9.97;6.37;;;7.70;99.90;;;9.20;67.21;96946.75;5009215;28;20423;-56
2023/11/13 01:42:14;;;;;;;10.17;7.27;;;7.60;99.90;;;9.25;66.86;96947.09;5009873;28;20049;-56
2023/11/13 01:44:42;;;;;;;9.50;6.93;;;7.60;99.90;;;9.28;67.03;96937.94;5006806;28;20046;-56
2023/11/13 01:47:10;;;;;;;13.10;7.13;;;7.60;99.90;;;9.28;66.96;96935.28;5009514;28;20057;-55
2023/11/13 01:49:39;;;;;;;14.67;7.53;;;7.50;99.90;;;9.29;66.80;96939.63;5012652;28;20042;-55
2023/11/13 01:52:07;;;;;;;10.27;7.00;;;7.50;99.90;;;9.29;66.82;96941.44;5012207;28;20042;-54
2023/11/13 01:54:36;;;;;;;8.63;6.70;;;7.50;99.90;;;9.29;67.34;96949.41;4996302;28;20046;-56
2023/11/13 01:57:07;;;;;;;12.33;7.23;;;7.50;99.90;;;9.30;67.26;96951.06;4996445;28;20049;-55
2023/11/13 01:59:37;;;;;;;14.17;7.63;;;7.50;99.90;;;9.35;67.07;96946.06;4989883;28;20038;-56
2023/11/13 02:02:05;;;;;;;10.63;6.70;;;7.60;99.90;;;9.36;67.18;96937.09;5012120;28;20046;-55
2023/11/13 02:04:33;;;;;;;10.23;6.57;;;7.60;99.90;;;9.34;67.45;96947.06;5013397;28;20034;-55
2023/11/13 02:07:03;;;;;;;11.30;6.63;;;7.60;99.90;;;9.35;67.72;96943.41;4996147;28;20057;-55
2023/11/13 02:09:31;;;;;;;9.17;6.33;;;7.60;99.90;;;9.37;67.83;96947.56;4987980;28;20045;-55
2023/11/13 02:11:58;;;;;;;11.23;7.27;;;7.60;99.90;;;9.43;67.84;96943.38;4995929;28;20423;-55
2023/11/13 02:14:26;;;;;;;12.17;6.47;;;7.70;99.90;;;9.48;67.88;96945.53;5011932;28;20046;-56
2023/11/13 02:17:08;;;;;;;10.83;6.33;;;7.80;99.90;;;9.50;67.69;96939.06;5012003;28;20502;-54
2023/11/13 02:19:37;;;;;;;11.47;6.27;;;7.90;99.90;;;9.53;67.81;96927.25;4987973;28;20411;-54
2023/11/13 02:22:07;;;;;;;9.10;5.67;;;7.80;99.90;;;9.55;67.64;96909.31;5013041;28;20045;-55
2023/11/13 02:24:34;;;;;;;9.23;6.37;;;7.90;99.90;;;9.55;68.19;96915.44;5004113;28;20037;-56
2023/11/13 02:27:02;;;;;;;8.43;5.83;;;8.00;99.90;;;9.60;67.97;96912.28;5011769;28;20050;-56
2023/11/13 02:29:30;;;;;;;8.23;5.80;;;8.00;99.90;;;9.66;68.16;96904.44;5011999;28;20062;-56
2023/11/13 02:32:01;;;;;;;8.53;6.27;;;8.00;99.90;;;9.72;68.17;96904.75;5011690;28;20053;-55
2023/11/13 02:34:29;;;;;;;8.97;5.67;;;8.00;99.90;;;9.75;67.80;96901.72;5012955;28;20057;-56
2023/11/13 02:36:56;;;;;;;9.43;5.67;;;8.10;99.90;;;9.77;67.78;96908.53;5012915;28;20045;-56
2023/11/13 02:39:24;;;;;;;10.67;5.00;;;8.00;99.90;;;9.81;67.99;96911.69;4995594;28;20061;-54
2023/11/13 02:41:52;;;;;;;10.77;5.63;;;8.10;99.90;;;9.86;68.05;96904.81;5012218;28;20048;-55
2023/11/13 02:44:19;;;;;;;10.47;6.20;;;8.20;99.90;;;9.90;68.08;96893.84;5012650;28;20045;-55
2023/11/13 02:46:48;;;;;;;11.60;5.87;;;8.20;99.90;;;9.92;67.79;96883.84;4994947;28;20038;-55
2023/11/13 02:49:16;;;;;;;8.53;5.43;;;8.20;99.90;;;9.95;67.87;96887.00;5011542;28;20422;-56
2023/11/13 02:51:44;;;;;;;7.37;5.33;;;8.30;99.90;;;9.98;68.01;96873.38;5012112;28;20046;-56
2023/11/13 02:54:12;;;;;;;9.20;6.33;;;8.30;99.90;;;10.00;68.06;96875.81;5011479;28;20054;-56
2023/11/13 02:56:40;;;;;;;8.07;5.47;;;8.30;99.90;;;10.02;67.97;96874.66;5011446;28;20065;-56
2023/11/13 02:59:08;;;;;;;10.13;5.63;;;8.40;99.90;;;10.04;67.95;96882.44;5010987;28;20050;-56
2023/11/13 03:01:35;;;;;;;7.87;4.83;;;8.40;99.90;;;10.06;68.04;96885.75;4995280;28;20046;-56
2023/11/13 03:04:03;;;;;;;7.43;5.50;;;8.40;99.90;;;10.07;68.04;96878.63;4994727;28;20133;-56
2023/11/13 03:06:32;;;;;;;8.83;4.57;;;8.40;99.90;;;10.08;67.94;96890.91;5012312;28;20054;-56
2023/11/13 03:08:59;;;;;;;6.53;4.20;;;8.40;99.90;;;10.11;68.08;96891.38;5011276;28;20417;-54
2023/11/13 03:11:27;;;;;;;7.20;4.03;;;8.50;99.90;;;10.11;68.59;96893.22;5010933;28;20057;-56
2023/11/13 03:13:55;;;;;;;7.37;3.93;;;8.50;99.90;;;10.14;68.31;96898.16;5011061;28;20042;-56
2023/11/13 03:16:22;;;;;;;5.87;4.00;;;8.50;99.90;;;10.16;68.46;96898.84;5012201;28;20057;-54
2023/11/13 03:18:50;;;;;;;6.43;4.43;;;8.60;99.90;;;10.15;68.64;96913.94;4994328;28;20511;-56
2023/11/13 03:21:18;;;;;;;6.20;4.23;;;8.60;99.90;;;10.19;68.72;96909.13;5011793;28;20057;-55
2023/11/13 03:23:45;;;;;;;7.73;4.67;;;8.60;99.90;;;10.19;68.97;96912.59;5010513;28;20046;-55
2023/11/13 03:26:13;;;;;;;5.83;3.60;;;8.70;99.90;;;10.18;69.18;96908.28;5010752;28;20086;-55
2023/11/13 03:28:41;;;;;;;7.13;4.77;;;8.70;99.90;;;10.17;69.50;96906.63;5002619;28;20499;-56
2023/11/13 03:31:10;;;;;;;6.57;4.13;;;8.70;99.90;;;10.25;69.49;96900.41;5010913;28;20507;-55
2023/11/13 03:33:37;;;;;;;6.00;3.80;;;8.70;99.90;;;10.29;68.88;96901.72;5011551;28;20046;-55
2023/11/13 03:36:05;;;;;;;6.30;4.00;;;8.70;99.90;;;10.31;69.29;96914.88;5010567;28;20042;-54
2023/11/13 03:38:33;;;;;;;5.40;3.37;;;8.70;99.90;;;10.28;69.18;96909.91;5011429;28;20057;-56
2023/11/13 03:41:00;;;;;;;4.83;3.40;;;8.80;99.90;;;10.32;69.14;96920.03;5010826;28;20046;-56
2023/11/13 03:43:29;;;;;;;5.10;2.80;;;8.80;99.90;;;10.35;69.37;96924.16;5010261;28;20098;-56
2023/11/13 03:45:57;;;;;;;5.07;3.03;;;8.80;99.90;;;10.36;69.60;96925.84;5009392;28;20042;-55
2023/11/13 03:48:25;;;;;;;3.80;2.90;;;8.80;99.90;;;10.38;69.23;96929.13;5010457;28;20109;-56
2023/11/13 03:50:52;;;;;;;4.27;2.60;;;8.80;99.90;;;10.42;69.35;96941.09;5010737;28;20053;-55
2023/11/13 03:53:20;;;;;;;4.40;2.50;;;8.90;99.90;;;10.43;69.62;96937.44;5010023;28;20054;-54
2023/11/13 03:55:48;;;;;;;4.23;2.40;;;8.90;99.90;;;10.47;69.77;96930.75;5010148;28;20040;-54
2023/11/13 03:58:16;;;;;;;5.13;2.50;;;9.00;99.90;;;10.52;69.50;96930.19;5011146;28;20054;-54
2023/11/13 04:00:44;;;;;;;3.93;2.00;;;9.00;99.90;;;10.54;69.54;96937.00;5002307;28;20046;-52
2023/11/13 04:03:13;;;;;;;3.37;2.63;;;9.10;99.90;;;10.56;69.62;96937.63;5010153;28;20474;-54
2023/11/13 04:05:42;;;;;;;3.37;1.97;;;9.10;99.90;;;10.54;69.81;96941.50;5011425;28;20041;-55
2023/11/13 04:08:10;;;;;;;5.03;1.97;;;9.10;99.90;;;10.61;69.59;96948.59;5010946;28;20046;-55
2023/11/13 04:10:38;;;;;;;4.43;1.90;;;9.20;99.90;;;10.62;70.37;96944.94;5009300;28;20065;-55
2023/11/13 04:13:07;;;;;;;4.63;2.20;;;9.30;99.90;;;10.69;70.20;96946.88;5010042;28;20427;-55
2023/11/13 04:15:35;;;;;;;3.33;1.80;;;9.40;99.90;;;10.74;70.13;96953.31;5010195;28;20533;-55
2023/11/13 04:18:03;;;;;;;5.13;1.60;;;9.40;99.90;;;10.73;71.48;96966.81;5010041;28;20545;-52
2023/11/13 04:20:31;;;;;;;6.87;2.70;;;9.60;99.90;;;10.77;71.54;96955.59;5010205;28;20057;-54
2023/11/13 04:22:59;;;;;;;6.53;1.80;;;9.70;99.90;;;10.74;72.07;96955.97;5010785;28;20034;-53
2023/11/13 04:25:27;;;;;;;10.20;2.77;;;9.80;99.90;;;10.79;72.11;96958.91;5010784;28;20057;-50
2023/11/13 04:27:57;;;;;;;10.43;3.03;;;9.80;99.90;;;10.89;72.12;96965.84;5009629;28;20053;-55
2023/11/13 04:30:24;;;;;;;6.13;1.80;;;9.90;99.90;;;10.97;71.55;96961.28;5009745;28;20068;-55
2023/11/13 04:32:52;;;;;;;4.17;1.90;;;9.90;99.90;;;10.98;71.97;96952.25;5010661;28;20437;-54
2023/11/13 04:35:20;;;;;;;7.37;2.77;;;10.00;99.90;;;11.10;71.98;96952.66;4990324;28;20050;-55
2023/11/13 04:37:48;;;;;;;9.03;2.67;;;10.00;99.90;;;11.10;71.97;96954.50;5009874;28;20050;-54
2023/11/13 04:40:16;;;;;;;6.80;2.03;;;10.10;99.90;;;11.02;72.17;96956.22;5010939;28;20495;-53
2023/11/13 04:42:44;;;;;;;7.10;2.73;;;10.20;99.90;;;11.18;71.80;96951.75;5010518;28;20518;-53
2023/11/13 04:45:12;;;;;;;8.27;2.87;;;10.30;99.90;;;11.25;71.91;96947.34;5007770;28;20050;-55
2023/11/13 04:47:40;;;;;;;7.87;2.40;;;10.30;99.90;;;11.23;72.14;96968.03;5009380;28;20472;-53
2023/11/13 04:50:08;;;;;;;8.93;2.83;;;10.30;99.90;;;11.25;71.99;96954.53;5010753;28;20061;-55
2023/11/13 04:52:36;;;;;;;6.10;2.33;;;10.30;99.90;;;11.35;71.36;96961.22;5010404;28;20054;-52
2023/11/13 04:55:04;;;;;;;6.57;3.53;;;10.30;99.90;;;11.34;71.77;96969.41;5010759;28;20057;-55
2023/11/13 04:57:31;;;;;;;9.37;3.00;;;10.30;99.90;;;11.39;71.36;96967.03;5010464;28;20049;-54
2023/11/13 04:59:59;;;;;;;7.40;2.43;;;10.40;99.90;;;11.46;70.93;96972.44;5010392;28;20046;-54
2023/11/13 05:02:26;;;;;;;12.40;3.00;;;10.40;99.90;;;11.50;71.08;96974.56;5010141;28;20094;-54
2023/11/13 05:04:54;;;;;;;6.93;2.87;;;10.40;99.90;;;11.52;70.76;96977.88;5010499;28;20418;-54
2023/11/13 05:07:22;;;;;;;14.30;3.90;;;10.40;99.90;;;11.57;70.71;96978.16;5010422;28;20041;-53
2023/11/13 05:09:50;;;;;;;7.40;2.20;;;10.40;99.90;;;11.55;70.43;96976.69;5002474;28;20038;-55
2023/11/13 05:12:18;;;;;;;6.57;2.03;;;10.40;99.90;;;11.54;70.60;96975.84;5010280;28;20071;-53
2023/11/13 05:14:45;;;;;;;6.83;2.53;;;10.40;99.90;;;11.61;70.10;96974.13;5010535;28;20427;-54
2023/11/13 05:17:13;;;;;;;8.47;2.70;;;10.40;99.90;;;11.63;70.20;96976.56;5010348;28;20435;-55
2023/11/13 05:19:41;;;;;;;10.47;2.60;;;10.40;99.90;;;11.69;69.96;96980.34;5009045;28;20050;-54
2023/11/13 05:22:08;;;;;;;10.83;3.07;;;10.50;99.90;;;11.65;70.25;96969.25;5010608;28;20053;-55
2023/11/13 05:24:38;;;;;;;9.33;3.00;;;10.50;99.90;;;11.65;70.03;96973.72;5014235;28;20073;-54
2023/11/13 05:27:06;;;;;;;11.07;2.63;;;10.50;99.90;;;11.63;69.83;96961.44;5014090;28;20069;-55
2023/11/13 05:29:33;;;;;;;10.60;3.03;;;10.60;99.90;;;11.62;69.99;96962.44;5012878;28;20081;-55
2023/11/13 05:32:01;;;;;;;12.17;3.67;;;10.60;99.90;;;11.61;69.85;96970.59;5012965;28;20050;-56
2023/11/13 05:34:28;;;;;;;10.90;3.70;;;10.70;99.90;;;11.70;69.78;96972.16;5013806;28;20049;-53
2023/11/13 05:36:57;;;;;;;10.93;2.77;;;10.60;99.90;;;11.67;69.66;96975.22;5013826;28;20050;-53
2023/11/13 05:39:24;;;;;;;13.53;3.30;;;10.70;99.90;;;11.73;69.22;96969.16;5013794;28;20419;-54
2023/11/13 05:41:52;;;;;;;17.80;4.40;;;10.70;99.90;;;11.68;69.64;96979.53;5013351;28;20038;-51
2023/11/13 05:44:19;;;;;;;13.83;3.60;;;10.70;99.50;;;11.72;69.42;96988.00;5013986;28;20038;-55
2023/11/13 05:46:48;;;;;;;10.37;4.20;;;10.80;99.50;;;11.72;69.65;96988.00;5013073;28;20050;-54
2023/11/13 05:49:15;;;;;;;7.53;3.00;;;10.80;98.90;;;11.77;69.01;96991.75;5013886;28;20526;-55
2023/11/13 05:51:43;;;;;;;12.07;3.23;;;10.80;98.40;;;11.85;68.91;96995.34;5012278;28;20057;-55
2023/11/13 05:54:12;;;;;;;11.80;3.20;;;10.80;99.00;;;11.95;69.07;96987.91;5013765;28;20042;-55
2023/11/13 05:56:39;;;;;;;7.40;3.90;;;10.80;98.70;;;12.00;68.74;96983.69;5013916;28;20057;-54
2023/11/13 05:59:09;;;;;;;8.63;3.50;;;10.90;98.90;;;12.04;68.57;96989.47;5012222;28;20621;-54
2023/11/13 06:01:36;;;;;;;12.43;5.10;;;10.80;98.70;;;12.10;68.33;96979.91;5013975;28;20037;-54
2023/11/13 06:04:04;;;;;;;9.70;2.50;;;10.80;98.50;;;12.07;68.62;96993.59;5012324;28;20042;-54
2023/11/13 06:06:32;;;;;;;9.23;2.77;;;10.80;98.20;;;11.99;68.23;96994.53;5012435;28;20053;-53
2023/11/13 06:09:00;;;;;;;11.80;3.30;;;10.80;98.00;;;12.01;68.01;96985.31;5013450;28;20041;-56
2023/11/13 06:11:27;;;;;;;14.77;4.43;;;10.90;97.60;;;12.02;68.23;96983.50;5013246;28;20049;-54
2023/11/13 06:13:55;;;;;;;10.97;5.00;;;10.90;97.30;;;12.12;67.72;96988.53;5012949;28;20049;-54
2023/11/13 06:16:23;;;;;;;15.43;4.17;;;10.80;97.40;;;12.13;67.90;96996.34;5013222;28;20057;-54
2023/11/13 06:18:54;;;;;;;9.83;3.27;;;10.90;97.50;;;12.12;67.57;97004.56;5011899;28;20530;-51
2023/11/13 06:21:22;;;;;;;11.20;4.07;;;10.80;96.70;;;12.13;67.54;97007.00;5011571;28;20062;-54
2023/11/13 06:23:50;;;;;;;13.53;4.33;;;10.80;96.80;;;12.07;67.33;97004.28;5013000;28;20420;-54
2023/11/13 06:26:17;;;;;;;10.80;3.27;;;10.90;96.00;;;12.11;67.31;97002.88;5011948;28;20057;-54
2023/11/13 06:28:45;;;;;;;8.32;3.42;;;10.90;96.20;;;12.15;67.28;97006.84;5012975;28;20057;-54
2023/11/13 06:31:13;;;;;;;14.38;3.90;;;10.90;96.80;;;12.16;67.16;97009.31;5012067;28;20045;-54
2023/11/13 06:33:43;;;;;;;16.37;4.17;;;10.90;96.60;;;12.08;67.18;97009.44;5012267;28;20049;-55
2023/11/13 06:36:10;;;;;;;18.70;4.20;;;10.90;96.20;;;12.14;67.58;97007.88;5012547;28;20050;-51
2023/11/13 06:38:38;;;;;;;12.60;3.20;;;10.90;96.80;;;12.18;67.58;96999.28;5012842;28;20415;-52
2023/11/13 06:41:07;;;;;;;11.33;2.93;;;10.90;96.90;;;12.23;67.11;97009.38;5013178;28;20045;-56
2023/11/13 06:43:34;;;;;;;8.70;4.97;;;10.90;97.10;;;12.29;67.22;96997.13;5012322;28;20045;-56
2023/11/13 06:46:03;;;;;;;23.30;4.13;;;10.90;97.10;;;12.32;67.04;96996.78;5011947;28;20037;-54
2023/11/13 06:48:32;;;;;;;13.00;4.00;;;10.90;97.10;;;12.35;66.68;97004.41;5012829;28;20056;-55
2023/11/13 06:51:00;;;;;;;14.97;4.53;;;10.90;97.10;;;12.39;66.93;97011.03;5012797;28;20423;-55
2023/11/13 06:53:27;;;;;;;13.77;3.80;;;10.90;96.90;;;12.41;66.92;97025.00;5012380;28;20042;-56
2023/11/13 06:55:55;;;;;;;14.57;4.53;;;10.90;97.10;;;12.43;66.73;97022.13;5012737;28;20050;-54
2023/11/13 06:58:23;;;;;;;12.13;4.43;;;10.90;97.10;;;12.42;66.60;97032.00;5012395;28;20045;-55
2023/11/13 07:00:51;;;;;;;17.55;4.30;;;10.90;97.10;;;12.44;66.79;97039.81;5012433;28;20049;-54
2023/11/13 07:03:18;;;;;;;10.53;3.60;;;10.90;97.20;;;12.43;66.76;97041.66;5011090;28;20061;-55
2023/11/13 07:05:46;;;;;;;11.20;3.17;;;10.90;97.70;;;12.44;66.68;97040.63;5012473;28;20049;-56
2023/11/13 07:08:14;;;;;;;15.35;5.20;;;10.90;98.30;;;12.44;66.70;97045.16;5012283;28;20125;-56
2023/11/13 07:10:43;;;;;;;10.55;3.63;;;10.90;98.60;;;12.45;66.60;97054.84;5012160;28;20413;-56
2023/11/13 07:13:14;;;;;;;13.77;4.53;;;10.90;99.20;;;12.47;66.80;97063.50;5012133;28;20046;-56
2023/11/13 07:15:41;;;;;;;11.77;3.40;;;10.90;99.70;;;12.47;66.44;97060.81;5012253;28;20038;-56
2023/11/13 07:18:09;;;;;;;14.25;4.20;;;10.80;99.60;;;12.46;66.61;97059.16;5011073;28;20383;-56
2023/11/13 07:20:39;;;;;;;12.25;3.95;;;10.80;99.90;;;12.44;66.46;97059.31;5012369;28;20428;-56
2023/11/13 07:23:07;;;;;;;12.97;3.50;;;10.70;99.90;;;12.43;66.89;97062.19;4994975;28;20046;-52
2023/11/13 07:25:34;;;;;;;10.93;3.20;;;10.70;99.90;;;12.43;66.62;97062.19;5012247;28;20041;-55
2023/11/13 07:28:02;;;;;;;15.38;3.22;;;10.70;99.90;;;12.43;66.95;97071.03;5012137;28;20041;-58
2023/11/13 07:30:31;;;;;;;15.60;5.00;;;10.70;99.90;;;12.43;66.99;97070.19;5011811;28;20117;-56
2023/11/13 07:32:58;;;;;;;12.07;3.33;;;10.70;99.90;;;12.40;66.97;97072.22;5010305;28;20061;-51
2023/11/13 07:35:26;;;;;;;14.37;4.43;;;10.70;99.90;;;12.40;66.91;97058.88;5012133;28;20521;-52
2023/11/13 07:37:54;;;;;;;12.93;3.40;;;10.70;99.90;;;12.38;67.09;97050.22;5011676;28;20050;-50
2023/11/13 07:40:21;;;;;;;15.82;4.82;;;10.60;99.90;;;12.38;67.20;97047.56;5011955;28;20049;-49
2023/11/13 07:42:49;;;;;;;27.50;3.88;;;10.60;99.90;;;12.36;66.91;97056.78;5011656;28;20056;-50
2023/11/13 07:45:18;;;;;;;10.90;4.40;;;10.60;99.90;;;12.37;66.97;97072.59;5011395;28;20042;-50
2023/11/13 07:47:46;;;;;;;8.33;3.53;;;10.60;99.90;;;12.38;67.03;97063.56;5010842;28;20056;-54
2023/11/13 07:50:14;;;;;;;15.73;4.00;;;10.60;99.90;;;12.37;67.16;97061.94;5011967;28;20049;-49
2023/11/13 07:52:44;;;;;;;11.63;3.77;;;10.60;99.90;;;12.39;67.26;97064.41;5011749;28;20506;-51
2023/11/13 07:55:14;;;;;;;10.23;3.53;;;10.70;99.90;;;12.39;67.03;97072.44;5011533;28;20057;-51
2023/11/13 07:57:42;;;;;;;12.30;3.87;;;10.60;99.90;;;12.40;67.00;97047.38;5010446;28;20454;-51
2023/11/13 08:00:13;;;;;;;18.30;4.10;;;10.60;99.90;;;12.37;67.28;97059.25;5011667;28;20046;-50
2023/11/13 08:02:42;;;;;;;12.47;3.10;;;10.60;99.90;;;12.39;67.34;97056.41;5011150;28;20042;-53
2023/11/13 08:05:12;;;;;;;13.83;4.07;;;10.60;99.90;;;12.40;67.13;97058.88;5011501;28;20491;-51
2023/11/13 08:07:42;;;;;;;14.07;5.07;;;10.70;99.90;;;12.40;67.10;97047.38;5011502;28;20041;-54
2023/11/13 08:10:15;;;;;;;11.93;4.70;;;10.60;99.90;;;12.40;67.34;97039.38;5004117;28;20054;-54
2023/11/13 08:12:45;;;;;;;11.38;3.47;;;10.70;99.90;;;12.39;67.29;97046.56;5010944;28;20050;-54
2023/11/13 08:15:14;;;;;;;13.90;5.23;;;10.60;99.90;;;12.36;67.26;97052.25;5011281;28;20061;-52
2023/11/13 08:17:43;;;;;;;14.57;4.57;;;10.60;99.90;;;12.35;67.23;97052.47;5010942;28;20049;-54
2023/11/13 08:20:14;;;;;;;16.80;5.37;;;10.60;99.90;;;12.35;67.20;97052.47;5003588;28;20054;-55
2023/11/13 08:22:42;;;;;;;12.20;4.27;;;10.50;99.90;;;12.32;67.12;97044.81;5010700;28;20069;-55
2023/11/13 08:25:14;;;;;;;10.30;3.63;;;10.50;99.90;;;12.32;67.25;97058.16;4985964;28;20050;-56
2023/11/13 08:27:44;;;;;;;10.37;4.63;;;10.50;99.90;;;12.31;67.29;97051.16;5010081;28;20082;-54
2023/11/13 08:30:14;;;;;;;17.10;4.47;;;10.50;99.90;;;12.28;67.35;97040.88;5003476;28;20498;-54
2023/11/13 08:32:43;;;;;;;12.00;3.40;;;10.50;99.90;;;12.24;67.40;97068.94;5010851;28;20046;-54
2023/11/13 08:35:14;;;;;;;12.10;3.93;;;10.40;99.90;;;12.23;67.34;97037.91;5009863;28;20101;-53
2023/11/13 08:37:48;;;;;;;9.67;2.93;;;10.40;99.90;;;12.21;67.23;97040.78;5010125;28;20049;-54
2023/11/13 08:40:23;;;;;;;10.90;3.00;;;10.40;99.90;;;12.10;67.66;97055.44;5003552;28;20045;-55
2023/11/13 08:42:53;;;;;;;13.20;3.50;;;10.40;99.90;;;12.11;67.64;97027.72;5010493;28;20045;-54
2023/11/13 08:45:21;;;;;;;13.37;10.87;;;10.40;99.90;;;12.14;67.47;97022.03;5011223;28;20042;-54
2023/11/13 08:47:53;;;;;;;10.63;7.97;;;10.40;99.90;;;12.15;67.47;97029.00;5010638;28;20050;-54
2023/11/13 08:50:22;;;;;;;10.87;3.77;;;10.40;99.90;;;12.18;67.93;97025.16;5010526;28;20050;-55
2023/11/13 08:52:50;;;;;;;13.87;4.40;;;10.40;99.90;;;12.18;67.36;97022.47;5010539;28;20050;-56
2023/11/13 08:55:18;;;;;;;6.50;2.33;;;10.40;99.90;;;12.19;67.64;97011.63;5011163;28;20057;-53
2023/11/13 08:57:48;;;;;;;5.90;2.80;;;10.50;99.90;;;12.15;67.69;97007.66;5014137;28;20050;-58
2023/11/13 09:00:21;;;;;;;8.07;2.80;;;10.50;99.90;;;12.15;67.52;97006.84;5007802;28;20061;-56
2023/11/13 09:02:58;;;;;;;13.13;3.27;;;10.50;99.90;;;12.21;67.40;96996.25;5013272;28;20050;-56
2023/11/13 09:05:27;;;;;;;8.47;3.83;;;10.50;99.90;;;12.23;67.64;96987.22;5014775;28;20048;-56
2023/11/13 09:07:58;;;;;;;6.13;3.43;;;10.50;99.90;;;12.25;67.49;96983.34;5014703;28;20061;-56
2023/11/13 09:10:29;;;;;;;8.17;3.37;;;10.60;99.90;;;12.26;67.60;96981.53;5014953;28;20053;-56
2023/11/13 09:12:59;;;;;;;12.23;4.93;;;10.60;99.90;;;12.27;67.49;96981.34;5014326;28;20406;-55
2023/11/13 09:15:32;;;;;;;13.43;5.37;;;10.60;99.90;;;12.29;67.61;96981.97;5014709;28;20041;-56
2023/11/13 09:18:06;;;;;;;9.37;3.13;;;10.70;99.90;;;12.27;67.49;96970.66;5014493;28;20400;-57
2023/11/13 09:20:41;;;;;;;10.63;3.63;;;10.60;99.90;;;12.30;67.74;96964.09;5013186;28;20446;-57
2023/11/13 09:23:10;;;;;;;7.93;2.47;;;10.60;99.90;;;12.28;67.56;96979.50;5012898;28;20056;-57
2023/11/13 09:25:38;;;;;;;8.10;2.10;;;10.70;99.90;;;12.29;67.76;96965.09;5015102;28;20045;-56
2023/11/13 09:28:07;;;;;;;7.27;2.67;;;10.70;99.90;;;12.30;67.41;96964.09;5013220;28;20521;-57
2023/11/13 09:30:35;;;;;;;5.40;2.13;;;10.70;99.90;;;12.29;67.14;96963.28;5014445;28;20046;-57
2023/11/13 09:33:05;;;;;;;5.47;2.40;;;10.70;99.90;;;12.33;67.47;96958.38;5014080;28;20053;-56
2023/11/13 09:35:33;;;;;;;5.00;1.83;;;10.70;99.90;;;12.34;67.52;96963.53;5014301;28;20041;-56
2023/11/13 09:38:01;;;;;;;5.03;2.00;;;10.70;99.90;;;12.36;67.53;96966.03;5014048;28;20503;-57
2023/11/13 09:40:34;;;;;;;4.80;1.93;;;10.80;99.90;;;12.37;67.57;96960.50;5014273;28;20042;-56
2023/11/13 09:43:24;;;;;;;4.07;2.05;;;10.70;99.90;;;12.39;67.87;96955.78;5012561;28;20053;-57
2023/11/13 09:45:51;;;;;;;5.53;2.40;;;10.80;99.90;;;12.42;67.85;96949.25;5014134;28;20491;-55
2023/11/13 09:48:28;;;;;;;3.17;1.60;;;10.80;99.90;;;12.46;67.99;96939.00;5006356;28;20521;-57
2023/11/13 09:51:00;;;;;;;3.58;1.65;;;10.90;99.90;;;12.49;67.85;96928.78;5013126;28;20049;-57
2023/11/13 09:53:28;;;;;;;4.60;1.67;;;10.90;99.90;;;12.47;67.99;96922.81;5012493;28;20521;-56
2023/11/13 09:55:57;;;;;;;4.37;1.50;;;11.00;99.90;;;12.51;68.11;96912.59;5013733;28;20049;-56
2023/11/13 09:58:26;;;;;;;5.30;1.30;;;11.00;99.90;;;12.50;68.07;96914.41;5013719;28;20057;-57
2023/11/13 10:00:53;;;;;;;2.33;1.67;;;11.00;99.90;;;12.50;68.48;96919.75;5013614;28;20045;-57
2023/11/13 10:03:21;;;;;;;3.80;1.67;;;11.00;99.90;;;12.51;68.47;96920.59;5004616;28;20041;-57
2023/11/13 10:05:50;;;;;;;3.05;1.30;;;11.10;99.90;;;12.55;68.93;96919.19;5012478;28;20042;-55
2023/11/13 10:08:20;;;;;;;2.60;1.40;;;11.10;99.90;;;12.54;68.92;96923.72;5011196;28;20037;-56
2023/11/13 10:10:49;;;;;;;6.10;2.50;;;11.20;99.90;;;12.53;69.30;96921.22;5013665;28;20053;-56
2023/11/13 10:13:23;;;;;;;3.78;1.35;;;11.20;99.90;;;12.55;69.77;96932.53;5011091;28;20038;-56
2023/11/13 10:15:52;;;;;;;5.70;1.50;;;11.30;99.90;;;12.61;69.62;96915.75;5012611;28;20046;-57
2023/11/13 10:18:26;;;;;;;2.47;1.73;;;11.30;99.90;;;12.59;69.94;96923.94;5004827;28;20050;-54
2023/11/13 10:20:58;;;;;;;5.20;1.88;;;11.40;99.90;;;12.65;69.90;96911.66;5013036;28;20053;-57
2023/11/13 10:23:34;;;;;;;2.42;1.35;;;11.40;99.90;;;12.67;70.12;96898.13;5012098;28;20442;-56
2023/11/13 10:26:02;;;;;;;2.00;1.40;;;11.50;99.90;;;12.72;70.05;96896.53;5013052;28;20034;-56